Time;durP1;ratioP1;P1;durP2;ratioP2;P2;SDS_P1;SDS_P2;PMS_P1;PMS_P2;Temp;Humidity;BMP_temperature;BMP_pressure;BME280_temperature;BME280_humidity;BME280_pressure;Samples;Min_cycle;Max_cycle;Signal;HPM_P1;HPM_P2
2023/12/28 00:03:06;;;;;;;6.47;2.80;;;;;;;9.04;62.42;99715.53;12200829;19;20003;-79
2023/12/28 00:07:08;;;;;;;6.40;2.97;;;;;;;9.08;62.49;99720.31;12225751;19;20039;-78
2023/12/28 00:11:12;;;;;;;6.37;2.97;;;;;;;9.06;62.57;99729.88;12214292;19;20010;-81
2023/12/28 00:15:14;;;;;;;6.30;3.10;;;;;;;9.02;62.54;99724.03;12186186;19;20417;-80
2023/12/28 00:19:16;;;;;;;11.80;3.15;;;;;;;8.98;62.68;99717.34;12208227;19;20006;-80
2023/12/28 00:23:20;;;;;;;7.65;2.67;;;;;;;8.95;62.81;99722.47;12212616;19;20028;-77
2023/12/28 00:27:21;;;;;;;6.15;2.80;;;;;;;8.92;62.65;99711.97;12243031;19;20014;-81
2023/12/28 00:31:24;;;;;;;5.07;2.97;;;;;;;8.87;62.62;99720.97;12206784;19;20010;-81
2023/12/28 00:35:25;;;;;;;5.30;2.97;;;;;;;8.99;62.43;99724.53;12176659;19;20028;-79
2023/12/28 00:39:28;;;;;;;5.45;2.50;;;;;;;9.06;61.29;99724.38;12200163;19;20014;-80
2023/12/28 00:43:30;;;;;;;5.07;3.33;;;;;;;9.23;61.44;99716.22;12201364;19;20383;-78
2023/12/28 00:47:33;;;;;;;;;;;;;;;9.23;60.35;99713.47;12180623;19;20006;-79
2023/12/28 00:51:35;;;;;;;6.93;2.65;;;;;;;9.32;60.35;99714.75;12202243;19;20518;-81
2023/12/28 00:55:37;;;;;;;6.60;3.47;;;;;;;9.36;59.61;99708.50;12202905;19;20010;-79
2023/12/28 00:59:38;;;;;;;5.07;2.80;;;;;;;9.51;58.58;99732.72;12181959;19;20043;-80
2023/12/28 01:03:40;;;;;;;4.65;2.78;;;;;;;9.71;57.77;99734.22;12203761;19;20729;-79
2023/12/28 01:07:42;;;;;;;4.93;2.78;;;;;;;9.93;56.86;99737.09;12200718;19;20011;-78
2023/12/28 01:11:44;;;;;;;4.18;2.67;;;;;;;10.12;56.63;99741.31;12186558;19;20014;-80
2023/12/28 01:15:45;;;;;;;4.88;2.35;;;;;;;10.27;55.70;99724.25;12200373;19;20413;-81
2023/12/28 01:19:47;;;;;;;7.13;2.45;;;;;;;10.38;55.00;99723.34;12234968;19;20014;-77
2023/12/28 01:23:51;;;;;;;5.05;2.70;;;;;;;10.47;54.29;99721.81;12214621;19;19999;-77
2023/12/28 01:27:53;;;;;;;5.32;2.60;;;;;;;10.56;53.76;99719.50;12217477;19;20010;-80
2023/12/28 01:31:54;;;;;;;5.40;2.63;;;;;;;10.70;54.31;99717.19;12200968;19;20023;-81
2023/12/28 01:35:56;;;;;;;6.63;2.83;;;;;;;10.73;53.61;99720.28;12175716;19;20006;-79
2023/12/28 01:39:58;;;;;;;5.32;2.40;;;;;;;10.81;53.56;99720.94;12198165;19;19999;-80
2023/12/28 01:44:00;;;;;;;6.38;2.90;;;;;;;10.86;53.57;99740.31;12197527;19;20031;-80
2023/12/28 01:48:03;;;;;;;5.45;3.00;;;;;;;10.88;53.83;99741.72;12171620;19;20014;-79
2023/12/28 01:52:06;;;;;;;5.47;2.72;;;;;;;10.85;53.21;99753.25;12189012;19;20015;-79
2023/12/28 01:56:08;;;;;;;5.93;2.53;;;;;;;10.84;52.48;99737.81;12199452;19;20010;-79
2023/12/28 02:00:11;;;;;;;5.13;2.70;;;;;;;10.85;52.40;99753.25;12188094;19;20006;-77
2023/12/28 02:04:13;;;;;;;5.57;2.65;;;;;;;10.84;52.72;99768.13;12192357;19;20055;-81
2023/12/28 02:08:15;;;;;;;6.03;3.00;;;;;;;10.87;52.95;99784.16;12206071;19;20022;-80
2023/12/28 02:12:17;;;;;;;7.35;3.35;;;;;;;10.89;53.04;99795.78;12193693;19;20366;-80
2023/12/28 02:16:36;;;;;;;7.75;3.50;;;;;;;10.83;53.02;99805.06;12207455;19;20018;-81
2023/12/28 02:20:39;;;;;;;5.68;2.90;;;;;;;10.73;52.98;99788.34;12185230;19;20031;-81
2023/12/28 02:25:07;;;;;;;4.30;2.58;;;;;;;10.72;53.18;99800.47;12207508;19;20011;-80
2023/12/28 02:29:09;;;;;;;9.05;3.63;;;;;;;10.69;53.58;99796.28;12203426;19;20007;-78
2023/12/28 02:33:19;;;;;;;5.05;2.78;;;;;;;10.68;53.72;99807.56;12186152;19;20011;-77
2023/12/28 02:37:22;;;;;;;7.13;3.10;;;;;;;10.70;54.41;99821.91;12204149;19;20011;-79
2023/12/28 02:41:25;;;;;;;5.22;2.92;;;;;;;10.57;55.31;99811.25;12186715;19;20002;-80
2023/12/28 02:45:28;;;;;;;7.15;3.03;;;;;;;10.52;56.63;99836.78;12202386;19;20018;-78
2023/12/28 02:49:30;;;;;;;7.25;3.05;;;;;;;10.40;57.97;99839.59;12207482;19;20015;-80
2023/12/28 02:53:32;;;;;;;5.47;2.97;;;;;;;10.30;59.36;99833.09;12182307;19;20006;-80
2023/12/28 02:57:37;;;;;;;3.65;2.20;;;;;;;10.21;60.58;99824.34;12205093;19;20486;-78
2023/12/28 03:01:39;;;;;;;6.63;2.70;;;;;;;10.18;60.80;99825.69;12208097;19;20021;-79
2023/12/28 03:05:41;;;;;;;7.30;2.70;;;;;;;10.16;60.59;99832.50;12185690;19;20070;-79
2023/12/28 03:09:43;;;;;;;6.28;2.75;;;;;;;10.11;61.30;99829.66;12205612;19;20010;-80
2023/12/28 03:13:45;;;;;;;7.22;3.00;;;;;;;10.03;62.92;99834.47;12203255;19;20007;-81
2023/12/28 03:17:47;;;;;;;6.88;3.10;;;;;;;10.03;63.70;99844.66;12182390;19;20011;-79
2023/12/28 03:21:48;;;;;;;4.82;3.08;;;;;;;9.96;64.08;99817.25;12201785;19;20010;-78
2023/12/28 03:25:50;;;;;;;6.90;2.97;;;;;;;9.90;64.77;99809.16;12204073;19;20023;-79
2023/12/28 03:29:52;;;;;;;5.18;2.60;;;;;;;9.90;64.64;99814.66;12181674;19;20006;-80
2023/12/28 03:33:54;;;;;;;5.97;3.08;;;;;;;9.82;65.26;99824.16;12203715;19;20401;-79
2023/12/28 03:37:56;;;;;;;7.63;2.63;;;;;;;9.87;66.87;99798.63;12200230;19;20010;-78
2023/12/28 03:41:58;;;;;;;5.43;3.07;;;;;;;9.86;68.68;99816.25;12180972;19;20002;-80
2023/12/28 03:46:00;;;;;;;5.65;2.60;;;;;;;9.75;72.60;99832.53;12195862;19;20260;-78
2023/12/28 03:50:02;;;;;;;5.95;2.97;;;;;;;9.73;73.28;99834.72;12196440;19;20035;-79
2023/12/28 03:54:03;;;;;;;3.28;1.85;;;;;;;9.71;73.75;99836.88;12176913;19;20017;-81
2023/12/28 03:58:05;;;;;;;4.45;2.40;;;;;;;9.64;76.21;99847.19;12195910;19;20076;-79
2023/12/28 04:02:07;;;;;;;4.50;2.22;;;;;;;9.70;77.94;99851.72;12200823;19;20113;-80
2023/12/28 04:06:09;;;;;;;6.25;2.58;;;;;;;9.71;78.27;99856.13;12176158;19;20006;-80
2023/12/28 04:10:10;;;;;;;8.15;2.55;;;;;;;9.68;80.06;99825.50;12198849;19;20356;-79
2023/12/28 04:14:12;;;;;;;7.25;2.63;;;;;;;9.70;79.05;99824.19;12200537;19;20003;-77
2023/12/28 04:18:14;;;;;;;4.35;2.35;;;;;;;9.66;79.87;99830.41;12177598;19;20006;-79
2023/12/28 04:22:17;;;;;;;4.83;2.53;;;;;;;9.64;79.97;99835.31;12200306;19;20473;-77
2023/12/28 04:26:20;;;;;;;4.78;2.67;;;;;;;9.68;79.75;99839.28;12202645;19;20370;-79
2023/12/28 04:30:22;;;;;;;4.75;2.67;;;;;;;9.67;79.84;99843.94;12177870;19;20006;-79
2023/12/28 04:34:24;;;;;;;4.47;2.70;;;;;;;9.71;79.37;99847.03;12196393;19;20399;-79
2023/12/28 04:38:25;;;;;;;4.70;2.40;;;;;;;9.71;79.92;99847.03;12198307;19;20015;-79
2023/12/28 04:42:27;;;;;;;5.67;3.10;;;;;;;9.77;80.09;99857.06;12185212;19;20502;-79
2023/12/28 04:46:29;;;;;;;7.53;2.43;;;;;;;9.78;80.37;99844.97;12030218;19;3395564;-78
2023/12/28 04:50:31;;;;;;;5.43;2.40;;;;;;;9.77;81.89;99846.06;12205254;19;20014;-80
2023/12/28 04:54:33;;;;;;;4.90;2.40;;;;;;;9.78;82.64;99844.97;12184308;19;20023;-80
2023/12/28 04:58:34;;;;;;;4.90;2.20;;;;;;;9.70;84.17;99846.22;12206012;19;20460;-80
2023/12/28 05:02:37;;;;;;;4.00;2.33;;;;;;;9.65;85.34;99839.75;12189360;19;20427;-80
2023/12/28 05:06:38;;;;;;;7.50;2.70;;;;;;;9.65;85.70;99845.25;12238014;19;20007;-77
2023/12/28 05:10:40;;;;;;;5.83;2.43;;;;;;;9.66;84.96;99845.00;12249048;19;19995;-77
2023/12/28 05:14:42;;;;;;;5.10;2.28;;;;;;;9.72;84.79;99851.44;12222504;19;20014;-77
2023/12/28 05:18:44;;;;;;;5.95;2.78;;;;;;;9.72;84.98;99873.47;12241709;19;20537;-80
2023/12/28 05:22:46;;;;;;;4.90;2.38;;;;;;;9.67;85.97;99879.72;12198503;19;20067;-80
2023/12/28 05:26:47;;;;;;;6.95;2.60;;;;;;;9.67;87.05;99884.38;12174081;19;20020;-79
2023/12/28 05:30:49;;;;;;;4.75;2.30;;;;;;;9.75;85.81;99889.50;12196104;19;20023;-77
2023/12/28 05:34:51;;;;;;;6.22;2.30;;;;;;;9.78;86.25;99895.34;12195935;19;20021;-78
2023/12/28 05:38:53;;;;;;;5.20;2.22;;;;;;;9.79;86.31;99893.44;12175309;19;20375;-79
2023/12/28 05:42:54;;;;;;;6.00;2.30;;;;;;;9.78;87.04;99891.75;12197156;19;20010;-80
2023/12/28 05:46:57;;;;;;;7.55;2.35;;;;;;;9.69;89.16;99884.97;12199568;19;20010;-79
2023/12/28 05:50:59;;;;;;;6.22;2.40;;;;;;;9.62;91.01;99879.59;12176794;19;20031;-78
2023/12/28 05:55:01;;;;;;;6.28;3.08;;;;;;;9.57;93.39;99883.06;12197079;19;21005;-79
2023/12/28 05:59:02;;;;;;;4.43;2.08;;;;;;;9.55;94.04;99879.72;12199376;19;20018;-79
2023/12/28 06:03:05;;;;;;;3.38;1.75;;;;;;;9.50;96.84;99893.38;12173126;19;20327;-78
2023/12/28 06:07:07;;;;;;;4.13;2.13;;;;;;;9.49;97.83;99872.44;12195444;19;20060;-77
2023/12/28 06:11:08;;;;;;;3.83;1.92;;;;;;;9.50;99.16;99882.34;12197639;19;20477;-78
2023/12/28 06:15:10;;;;;;;4.35;2.22;;;;;;;9.56;98.67;99892.41;12172618;19;20361;-79
2023/12/28 06:19:12;;;;;;;5.28;2.33;;;;;;;9.55;100.00;99876.97;12196852;19;20050;-80
2023/12/28 06:23:14;;;;;;;5.15;2.22;;;;;;;9.57;100.00;99868.47;12195701;19;20130;-79
2023/12/28 06:27:16;;;;;;;3.17;1.95;;;;;;;9.54;100.00;99867.03;12176240;19;20031;-79
2023/12/28 06:31:17;;;;;;;4.70;1.55;;;;;;;9.59;100.00;99861.66;12194929;19;20513;-78
2023/12/28 06:35:19;;;;;;;4.50;1.90;;;;;;;9.62;100.00;99868.59;12136262;19;20022;-80
2023/12/28 06:39:21;;;;;;;3.13;1.40;;;;;;;9.65;100.00;99862.59;12203703;19;20006;-76
2023/12/28 06:43:23;;;;;;;5.70;1.75;;;;;;;9.71;100.00;99875.38;12257013;19;20009;-76
2023/12/28 06:47:25;;;;;;;4.75;2.22;;;;;;;9.74;100.00;99874.91;12250386;19;20490;-76
2023/12/28 06:51:27;;;;;;;3.63;2.30;;;;;;;9.79;100.00;99882.44;12203593;19;20007;-81
2023/12/28 06:55:29;;;;;;;6.50;2.20;;;;;;;9.77;100.00;99877.16;12207971;19;20062;-79
2023/12/28 06:59:30;;;;;;;3.67;1.48;;;;;;;9.81;100.00;99875.63;12209251;19;20014;-79
2023/12/28 07:03:32;;;;;;;3.38;1.80;;;;;;;9.84;100.00;99866.00;12191662;19;20006;-80
2023/12/28 07:07:36;;;;;;;3.92;1.85;;;;;;;9.89;100.00;99871.63;12206800;19;20013;-76
2023/12/28 07:11:38;;;;;;;5.47;2.10;;;;;;;9.90;100.00;99875.22;12189520;19;20340;-80
2023/12/28 07:15:40;;;;;;;5.38;1.80;;;;;;;9.93;100.00;99885.72;12208829;19;20011;-80
2023/12/28 07:19:43;;;;;;;2.67;2.07;;;;;;;9.92;100.00;99893.16;12210890;19;20023;-78
2023/12/28 07:23:49;;;;;;;3.72;2.00;;;;;;;9.93;100.00;99883.81;12186803;19;20790;-81
2023/12/28 07:27:50;;;;;;;4.10;1.70;;;;;;;9.85;100.00;99883.38;12202668;19;20018;-81
2023/12/28 07:31:54;;;;;;;3.08;1.50;;;;;;;9.71;100.00;99891.06;12206029;19;20006;-79
2023/12/28 07:35:59;;;;;;;3.63;1.70;;;;;;;9.74;100.00;99901.59;12178350;19;20011;-78
2023/12/28 07:40:03;;;;;;;4.57;2.30;;;;;;;9.78;100.00;99906.34;12201026;19;20010;-78
2023/12/28 07:44:04;;;;;;;3.72;1.70;;;;;;;9.75;100.00;99903.25;12197362;19;20062;-77
2023/12/28 07:48:06;;;;;;;3.92;2.05;;;;;;;9.77;100.00;99901.94;12176969;19;20015;-77
2023/12/28 07:52:08;;;;;;;8.93;2.17;;;;;;;9.80;100.00;99906.13;12195755;19;20022;-80
2023/12/28 07:56:11;;;;;;;7.22;1.80;;;;;;;9.79;100.00;99908.03;12196704;19;20074;-78
2023/12/28 08:00:13;;;;;;;3.10;1.95;;;;;;;9.80;100.00;99906.13;12182151;19;20019;-80
2023/12/28 08:04:14;;;;;;;4.77;1.80;;;;;;;9.85;100.00;99897.16;12203309;19;20010;-79
2023/12/28 08:08:16;;;;;;;2.88;1.42;;;;;;;9.81;100.00;99896.78;12199456;19;20007;-79
2023/12/28 08:12:20;;;;;;;4.18;1.90;;;;;;;9.84;100.00;99906.47;12179618;19;20006;-79
2023/12/28 08:16:22;;;;;;;4.53;1.75;;;;;;;9.87;100.00;99911.47;12199533;19;20014;-79
2023/12/28 08:20:24;;;;;;;4.38;1.85;;;;;;;10.11;100.00;99912.25;12199181;19;20018;-79
2023/12/28 08:24:26;;;;;;;5.60;2.05;;;;;;;10.16;100.00;99907.69;12173814;19;20002;-79
2023/12/28 08:28:28;;;;;;;3.88;1.90;;;;;;;10.18;100.00;99902.78;12200955;19;20010;-80
2023/12/28 08:32:30;;;;;;;3.07;1.57;;;;;;;10.24;100.00;99901.81;12203648;19;20400;-78
2023/12/28 08:36:32;;;;;;;3.30;1.73;;;;;;;10.30;100.00;99911.03;12176251;19;20030;-76
2023/12/28 08:40:34;;;;;;;5.32;2.30;;;;;;;10.30;100.00;99913.78;12201503;19;20255;-80
2023/12/28 08:44:36;;;;;;;5.87;2.13;;;;;;;10.35;100.00;99900.13;12179872;19;20011;-79
2023/12/28 08:48:38;;;;;;;6.37;1.73;;;;;;;10.34;100.00;99903.94;12201686;19;20267;-80
2023/12/28 08:52:40;;;;;;;3.83;2.15;;;;;;;10.27;100.00;99898.59;12205810;19;20010;-79
2023/12/28 08:56:42;;;;;;;5.63;1.70;;;;;;;10.18;100.00;99912.97;12177159;19;20010;-80
2023/12/28 09:00:45;;;;;;;6.70;2.30;;;;;;;10.08;100.00;99908.06;12201892;19;20081;-78
2023/12/28 09:04:47;;;;;;;3.97;1.95;;;;;;;10.00;100.00;99900.22;12228131;19;20007;-77
2023/12/28 09:08:51;;;;;;;4.80;2.38;;;;;;;9.95;100.00;99891.84;12224927;19;20011;-78
2023/12/28 09:12:52;;;;;;;4.57;1.90;;;;;;;9.94;100.00;99907.53;12232956;19;20003;-81
2023/12/28 09:16:55;;;;;;;4.70;2.25;;;;;;;9.90;100.00;99898.06;12201653;19;20019;-77
2023/12/28 09:20:57;;;;;;;5.10;1.95;;;;;;;9.90;100.00;99922.84;12177062;19;20022;-81
2023/12/28 09:24:58;;;;;;;5.72;2.22;;;;;;;9.96;100.00;99915.53;12201407;19;20011;-78
2023/12/28 09:29:00;;;;;;;3.57;1.90;;;;;;;10.03;100.00;99932.75;12208250;19;20054;-76
2023/12/28 09:33:03;;;;;;;6.15;2.35;;;;;;;10.16;100.00;99926.97;12225586;19;20062;-76
2023/12/28 09:37:05;;;;;;;4.82;1.88;;;;;;;10.26;100.00;99943.75;12225294;19;20010;-78
2023/12/28 09:41:16;;;;;;;3.63;1.80;;;;;;;10.37;100.00;99944.75;12205864;19;20646;-81
2023/12/28 09:45:18;;;;;;;3.67;1.85;;;;;;;10.35;100.00;99952.47;12179881;19;20136;-80
2023/12/28 09:49:21;;;;;;;3.10;1.80;;;;;;;10.39;100.00;99959.13;12192020;19;20007;-79
2023/12/28 09:53:24;;;;;;;3.00;1.67;;;;;;;10.51;100.00;99944.50;12192968;19;20095;-79
2023/12/28 09:57:26;;;;;;;4.97;2.15;;;;;;;10.63;100.00;99939.75;12168357;19;20007;-80
2023/12/28 10:01:28;;;;;;;6.03;2.38;;;;;;;10.77;100.00;99940.25;12192860;19;20011;-79
2023/12/28 10:05:30;;;;;;;4.53;1.90;;;;;;;10.90;100.00;99937.22;12195618;19;20351;-80
2023/12/28 10:09:32;;;;;;;4.53;1.90;;;;;;;11.04;100.00;99922.00;12172631;19;20032;-78
2023/12/28 10:13:35;;;;;;;3.70;1.92;;;;;;;11.22;100.00;99929.22;12189038;19;20011;-78
2023/12/28 10:17:37;;;;;;;4.03;1.88;;;;;;;11.38;100.00;99922.00;12175383;19;20434;-79
2023/12/28 10:21:40;;;;;;;5.18;2.05;;;;;;;11.37;100.00;99929.44;12204732;19;20003;-79
2023/12/28 10:25:42;;;;;;;6.18;2.40;;;;;;;11.42;100.00;99939.69;12211503;19;20018;-80
2023/12/28 10:29:44;;;;;;;4.75;3.58;;;;;;;11.38;100.00;99942.13;12184784;19;20027;-80
2023/12/28 10:33:47;;;;;;;3.72;2.17;;;;;;;11.24;100.00;99949.06;12208869;19;20020;-80
2023/12/28 10:37:55;;;;;;;5.30;2.08;;;;;;;11.07;100.00;99953.78;12200653;19;20070;-80
2023/12/28 10:41:59;;;;;;;3.83;1.55;;;;;;;10.80;100.00;99943.38;12183038;19;20017;-77
2023/12/28 10:46:02;;;;;;;3.92;1.75;;;;;;;10.57;100.00;99943.50;12210324;19;20002;-80
2023/12/28 10:50:08;;;;;;;3.42;2.22;;;;;;;10.45;100.00;99927.84;12198961;19;20006;-79
2023/12/28 10:54:10;;;;;;;6.82;2.28;;;;;;;10.39;100.00;99917.81;12180208;19;20018;-79
2023/12/28 10:58:23;;;;;;;3.38;1.83;;;;;;;10.36;100.00;99909.22;12195369;19;20479;-78
2023/12/28 11:02:32;;;;;;;3.50;1.92;;;;;;;10.39;100.00;99906.78;12198889;19;20061;-77
2023/12/28 11:06:35;;;;;;;3.10;1.70;;;;;;;10.47;100.00;99909.16;12178362;19;20002;-78
2023/12/28 11:10:38;;;;;;;3.75;2.03;;;;;;;10.66;100.00;99914.47;12203237;19;20014;-78
2023/12/28 11:14:41;;;;;;;6.97;1.90;;;;;;;10.72;100.00;99919.81;12181273;19;20332;-77
2023/12/28 11:18:44;;;;;;;5.70;2.42;;;;;;;10.63;100.00;99918.53;12201694;19;20011;-79
2023/12/28 11:22:47;;;;;;;4.30;2.03;;;;;;;10.67;100.00;99916.13;12199889;19;20003;-81
2023/12/28 11:26:55;;;;;;;2.88;1.73;;;;;;;10.63;100.00;99920.47;12180684;19;20014;-81
2023/12/28 11:30:57;;;;;;;5.47;2.10;;;;;;;10.61;100.00;99914.34;12199726;19;20010;-81
2023/12/28 11:34:59;;;;;;;3.67;1.58;;;;;;;10.64;100.00;99916.63;12195521;19;20019;-82
2023/12/28 11:39:04;;;;;;;5.20;1.83;;;;;;;10.61;100.00;99917.09;12171337;19;20007;-80
2023/12/28 11:43:18;;;;;;;5.03;2.15;;;;;;;10.52;100.00;99905.66;12205157;19;20071;-80
2023/12/28 11:47:24;;;;;;;3.30;1.67;;;;;;;10.50;100.00;99899.56;12205198;19;20054;-80
2023/12/28 11:51:27;;;;;;;6.68;2.78;;;;;;;10.57;100.00;99904.91;12180193;19;20533;-80
2023/12/28 11:55:29;;;;;;;5.75;1.75;;;;;;;10.83;100.00;99898.78;12202846;19;20436;-79
2023/12/28 11:59:31;;;;;;;4.95;1.80;;;;;;;11.10;100.00;99887.91;12202241;19;20030;-78
2023/12/28 12:03:33;;;;;;;5.85;2.20;;;;;;;11.40;100.00;99887.56;12180164;19;20010;-79
2023/12/28 12:07:36;;;;;;;4.93;1.83;;;;;;;11.80;100.00;99874.56;12201996;19;19998;-80
2023/12/28 12:11:38;;;;;;;3.43;1.77;;;;;;;11.99;99.82;99872.38;12181740;19;20014;-77
2023/12/28 12:15:40;;;;;;;4.15;1.90;;;;;;;11.78;99.82;99866.56;12204973;19;20256;-78
2023/12/28 12:19:42;;;;;;;5.70;2.20;;;;;;;11.55;100.00;99853.81;12202776;19;20014;-79
2023/12/28 12:23:43;;;;;;;7.53;2.07;;;;;;;11.31;100.00;99858.72;12180137;19;20354;-77
2023/12/28 12:27:45;;;;;;;3.80;1.67;;;;;;;11.32;100.00;99857.63;12198921;19;20086;-80
2023/12/28 12:31:48;;;;;;;5.63;2.37;;;;;;;11.53;100.00;99835.84;12202423;19;20002;-80
2023/12/28 12:35:50;;;;;;;3.97;1.70;;;;;;;11.73;100.00;99844.38;12178344;19;20018;-80
2023/12/28 12:39:54;;;;;;;4.40;2.07;;;;;;;11.61;100.00;99835.41;12201144;19;20388;-82
2023/12/28 12:43:56;;;;;;;7.25;2.60;;;;;;;11.43;100.00;99835.72;12204248;19;20027;-81
2023/12/28 12:47:59;;;;;;;5.75;2.30;;;;;;;11.09;100.00;99831.06;12177252;19;20066;-79
2023/12/28 12:52:01;;;;;;;;;;;;;;;10.85;100.00;99818.56;12201194;19;20043;-79
2023/12/28 12:56:07;;;;;;;4.50;2.50;;;;;;;10.72;100.00;99805.97;12201069;19;20311;-79
2023/12/28 13:00:09;;;;;;;4.35;2.60;;;;;;;10.67;100.00;99817.75;12176849;19;20479;-79
2023/12/28 13:04:12;;;;;;;3.80;2.33;;;;;;;10.58;100.00;99813.72;12200004;19;20346;-79
2023/12/28 13:08:14;;;;;;;9.80;2.65;;;;;;;10.67;100.00;99811.41;12199206;19;20019;-79
2023/12/28 13:12:15;;;;;;;7.37;2.97;;;;;;;10.64;100.00;99811.91;12179201;19;20006;-80
2023/12/28 13:16:18;;;;;;;5.07;2.53;;;;;;;10.60;100.00;99819.00;12199001;19;20010;-79
2023/12/28 13:20:19;;;;;;;6.38;2.72;;;;;;;10.55;100.00;99825.25;12202031;19;20006;-81
2023/12/28 13:24:21;;;;;;;5.90;3.00;;;;;;;10.54;100.00;99812.56;12179841;19;20003;-79
2023/12/28 13:28:23;;;;;;;4.25;2.97;;;;;;;10.55;100.00;99808.72;12199392;19;20006;-83
2023/12/28 13:32:25;;;;;;;6.53;3.60;;;;;;;10.44;100.00;99810.47;12203303;19;20015;-78
2023/12/28 13:36:28;;;;;;;3.03;2.20;;;;;;;10.28;100.00;99803.03;12177214;19;21118;-79
2023/12/28 13:40:31;;;;;;;6.57;3.20;;;;;;;10.18;100.00;99803.66;12204347;19;20014;-80
2023/12/28 13:44:33;;;;;;;5.63;3.13;;;;;;;10.17;100.00;99806.63;12203263;19;20006;-79
2023/12/28 13:48:35;;;;;;;5.88;3.08;;;;;;;10.19;100.00;99804.47;12183270;19;20006;-80
2023/12/28 13:52:37;;;;;;;5.60;2.75;;;;;;;10.10;100.00;99806.78;12231850;19;20047;-80
2023/12/28 13:56:40;;;;;;;7.82;3.60;;;;;;;10.18;100.00;99800.06;12233376;19;20003;-78
2023/12/28 14:00:42;;;;;;;6.75;3.80;;;;;;;10.27;100.00;99798.59;12202583;19;20015;-77
2023/12/28 14:04:45;;;;;;;4.83;3.30;;;;;;;10.31;100.00;99793.44;12202770;19;20010;-77
2023/12/28 14:08:47;;;;;;;5.60;3.28;;;;;;;10.35;100.00;99798.22;12186132;19;20343;-79
2023/12/28 14:12:49;;;;;;;4.43;2.83;;;;;;;10.30;100.00;99792.59;12230986;19;20035;-77
2023/12/28 14:16:52;;;;;;;7.10;3.70;;;;;;;10.14;100.00;99787.84;12234183;19;20497;-79
2023/12/28 14:20:54;;;;;;;5.07;3.05;;;;;;;10.07;100.00;99781.69;12213876;19;20052;-79
2023/12/28 14:24:56;;;;;;;7.38;3.65;;;;;;;9.99;100.00;99794.78;12243419;19;20006;-77
2023/12/28 14:28:59;;;;;;;6.05;3.63;;;;;;;10.00;100.00;99790.09;12239442;19;20006;-79
2023/12/28 14:33:01;;;;;;;9.60;3.03;;;;;;;9.94;100.00;99791.91;12215714;19;20020;-77
2023/12/28 14:37:04;;;;;;;6.57;3.53;;;;;;;9.96;100.00;99783.41;12203131;19;20007;-78
2023/12/28 14:41:06;;;;;;;6.72;3.60;;;;;;;10.02;100.00;99788.78;12201352;19;20042;-81
2023/12/28 14:45:08;;;;;;;4.40;2.85;;;;;;;10.05;100.00;99784.66;12178666;19;20003;-78
2023/12/28 14:49:10;;;;;;;6.60;3.25;;;;;;;10.04;100.00;99792.09;12206297;19;20022;-80
2023/12/28 14:53:12;;;;;;;6.30;3.92;;;;;;;10.09;100.00;99791.38;12203584;19;20031;-80
2023/12/28 14:57:14;;;;;;;4.32;2.90;;;;;;;10.10;100.00;99800.47;12179511;19;20449;-78
2023/12/28 15:01:17;;;;;;;5.30;2.83;;;;;;;10.02;100.00;99796.16;12207890;19;20914;-77
2023/12/28 15:05:19;;;;;;;5.97;3.50;;;;;;;9.93;100.00;99790.22;12198277;19;20014;-78
2023/12/28 15:09:20;;;;;;;2.95;1.95;;;;;;;9.79;100.00;99780.63;12187095;19;20011;-78
2023/12/28 15:13:23;;;;;;;5.95;3.35;;;;;;;9.67;100.00;99785.34;12207832;19;20890;-81
2023/12/28 15:17:25;;;;;;;6.60;2.78;;;;;;;9.58;100.00;99776.63;12202758;19;20097;-80
2023/12/28 15:21:27;;;;;;;5.23;2.50;;;;;;;9.61;100.00;99773.38;12192179;19;20110;-81
2023/12/28 15:25:29;;;;;;;6.00;3.00;;;;;;;9.52;100.00;99777.59;12211778;19;20015;-79
2023/12/28 15:29:30;;;;;;;7.18;3.63;;;;;;;9.47;100.00;99783.00;12206087;19;20458;-81
2023/12/28 15:33:32;;;;;;;5.13;3.03;;;;;;;9.40;100.00;99793.28;12186927;19;20007;-81
2023/12/28 15:37:34;;;;;;;5.20;2.80;;;;;;;9.28;100.00;99794.16;12203433;19;20163;-80
2023/12/28 15:41:36;;;;;;;7.03;3.33;;;;;;;9.29;100.00;99792.25;12207118;19;20017;-77
2023/12/28 15:45:38;;;;;;;6.10;3.00;;;;;;;9.35;100.00;99788.53;12186264;19;20006;-80
2023/12/28 15:49:40;;;;;;;6.35;2.95;;;;;;;9.35;100.00;99789.34;12207218;19;20002;-80
2023/12/28 15:53:41;;;;;;;6.53;3.53;;;;;;;9.34;100.00;99798.69;12186085;19;20014;-80
2023/12/28 15:57:43;;;;;;;5.70;3.03;;;;;;;9.42;100.00;99804.88;12202526;19;20010;-81
2023/12/28 16:01:45;;;;;;;5.50;3.30;;;;;;;9.51;100.00;99798.75;12206746;19;20017;-79
2023/12/28 16:05:47;;;;;;;6.45;2.83;;;;;;;9.56;100.00;99806.28;12174448;19;20031;-78
2023/12/28 16:09:49;;;;;;;5.57;2.63;;;;;;;9.61;100.00;99791.78;12207346;19;20529;-81
2023/12/28 16:13:51;;;;;;;6.70;3.38;;;;;;;9.62;100.00;99794.31;12203776;19;20027;-79
2023/12/28 16:17:56;;;;;;;7.97;3.60;;;;;;;9.62;100.00;99793.47;12179756;19;20027;-77
2023/12/28 16:22:00;;;;;;;9.50;4.40;;;;;;;9.61;100.00;99792.66;12201893;19;20263;-81
2023/12/28 16:26:02;;;;;;;5.40;3.40;;;;;;;9.55;100.00;99788.94;12201676;19;20011;-80
2023/12/28 16:30:04;;;;;;;5.60;3.00;;;;;;;9.40;100.00;99796.03;12183485;19;20251;-79
2023/12/28 16:34:07;;;;;;;11.18;3.72;;;;;;;9.23;100.00;99791.28;12203911;19;20076;-78
2023/12/28 16:38:12;;;;;;;5.75;3.47;;;;;;;9.22;100.00;99788.75;12198177;19;20014;-80
2023/12/28 16:42:14;;;;;;;9.38;4.68;;;;;;;9.29;100.00;99778.50;12185125;19;20028;-80
2023/12/28 16:46:16;;;;;;;7.57;3.47;;;;;;;9.34;100.00;99792.34;12201563;19;20018;-78
2023/12/28 16:50:23;;;;;;;6.80;3.03;;;;;;;9.33;100.00;99785.16;12200558;19;20007;-81
2023/12/28 16:54:25;;;;;;;6.63;3.20;;;;;;;9.30;100.00;99780.16;12189260;19;20010;-81
2023/12/28 16:58:27;;;;;;;5.57;2.67;;;;;;;9.34;100.00;99790.44;12209122;19;20017;-79
2023/12/28 17:02:29;;;;;;;8.13;4.47;;;;;;;9.41;100.00;99781.22;12205912;19;20015;-78
2023/12/28 17:06:32;;;;;;;6.65;3.17;;;;;;;9.41;100.00;99770.22;12174082;19;20018;-78
2023/12/28 17:10:34;;;;;;;;;;;;;;;9.28;100.00;99771.28;12222935;19;20006;-77
2023/12/28 17:14:36;;;;;;;15.82;3.55;;;;;;;9.24;100.00;99767.38;12225382;19;19923;-78
2023/12/28 17:18:38;;;;;;;5.63;3.00;;;;;;;9.16;100.00;99771.34;12178765;19;20007;-78
2023/12/28 17:22:50;;;;;;;7.53;3.53;;;;;;;9.08;100.00;99778.03;12198853;19;20010;-78
2023/12/28 17:26:59;;;;;;;6.85;2.95;;;;;;;9.02;100.00;99761.69;12198825;19;20267;-78
2023/12/28 17:31:02;;;;;;;5.63;3.80;;;;;;;8.93;100.00;99771.38;12176272;19;20092;-80
2023/12/28 17:35:05;;;;;;;5.93;3.92;;;;;;;8.82;100.00;99778.53;12198395;19;20003;-80
2023/12/28 17:39:10;;;;;;;7.82;4.00;;;;;;;8.79;100.00;99771.59;12178975;19;20035;-79
2023/12/28 17:43:20;;;;;;;7.28;4.55;;;;;;;8.75;100.00;99772.34;12192301;19;20002;-78
2023/12/28 17:47:26;;;;;;;8.88;4.15;;;;;;;8.71;100.00;99776.63;12201154;19;20006;-79
2023/12/28 17:51:32;;;;;;;6.47;3.45;;;;;;;8.71;100.00;99768.38;12182145;19;20010;-79
2023/12/28 17:55:34;;;;;;;7.95;3.83;;;;;;;8.71;100.00;99773.88;12199314;19;20018;-80
2023/12/28 17:59:36;;;;;;;7.22;4.50;;;;;;;8.67;100.00;99766.09;12194622;19;20623;-78
2023/12/28 18:03:38;;;;;;;10.00;4.25;;;;;;;8.70;100.00;99770.28;12179224;19;20014;-80
2023/12/28 18:07:41;;;;;;;8.13;4.38;;;;;;;8.72;100.00;99761.81;12193018;19;20352;-79
2023/12/28 18:11:43;;;;;;;7.82;4.30;;;;;;;8.72;100.00;99762.66;12202376;19;20007;-79
2023/12/28 18:15:45;;;;;;;7.03;4.18;;;;;;;8.76;100.00;99768.50;12177206;19;20007;-79
2023/12/28 18:19:47;;;;;;;11.90;5.13;;;;;;;8.72;100.00;99768.16;12199306;19;20082;-76
2023/12/28 18:23:49;;;;;;;11.80;4.90;;;;;;;8.73;100.00;99764.31;12202425;19;20021;-78
2023/12/28 18:27:52;;;;;;;10.15;4.60;;;;;;;8.77;100.00;99770.16;12175124;19;20023;-80
2023/12/28 18:31:54;;;;;;;8.75;4.47;;;;;;;8.80;100.00;99775.19;12203613;19;20010;-79
2023/12/28 18:35:58;;;;;;;9.10;4.20;;;;;;;8.95;100.00;99770.03;12199677;19;20014;-78
2023/12/28 18:40:00;;;;;;;9.07;4.47;;;;;;;9.08;100.00;99766.22;12189240;19;20052;-79
2023/12/28 18:44:02;;;;;;;8.20;4.33;;;;;;;9.12;100.00;99764.66;12211512;19;20022;-78
2023/12/28 18:48:06;;;;;;;10.85;4.05;;;;;;;9.16;100.00;99768.59;12197693;19;20002;-80